sensor_id;sensor_type;location;lat;lon;timestamp;pressure;altitude;pressure_sealevel;temperature;humidity
39177;BME280;24904;52.208;21.192;2023-01-26T00:04:38;101447.54;;;2.12;72.83
39177;BME280;24904;52.208;21.192;2023-01-26T00:09:43;101451.91;;;2.07;72.53
39177;BME280;24904;52.208;21.192;2023-01-26T00:14:48;101453.63;;;2.09;73.16
39177;BME280;24904;52.208;21.192;2023-01-26T00:19:55;101447.13;;;2.14;73.16
39177;BME280;24904;52.208;21.192;2023-01-26T00:25:01;101442.91;;;2.14;72.87
39177;BME280;24904;52.208;21.192;2023-01-26T00:30:07;101441.09;;;2.15;72.90
39177;BME280;24904;52.208;21.192;2023-01-26T00:35:12;101437.16;;;2.14;73.10
39177;BME280;24904;52.208;21.192;2023-01-26T00:40:18;101435.39;;;2.12;73.20
39177;BME280;24904;52.208;21.192;2023-01-26T00:45:23;101433.13;;;2.11;73.24
39177;BME280;24904;52.208;21.192;2023-01-26T00:50:28;101428.80;;;2.14;72.96
39177;BME280;24904;52.208;21.192;2023-01-26T00:55:33;101420.44;;;2.16;72.87
39177;BME280;24904;52.208;21.192;2023-01-26T01:00:39;101416.33;;;2.16;73.14
39177;BME280;24904;52.208;21.192;2023-01-26T01:05:44;101413.21;;;2.14;73.17
39177;BME280;24904;52.208;21.192;2023-01-26T01:10:49;101420.29;;;2.11;73.23
39177;BME280;24904;52.208;21.192;2023-01-26T01:15:54;101416.59;;;2.07;73.34
39177;BME280;24904;52.208;21.192;2023-01-26T01:20:59;101407.48;;;2.05;73.27
39177;BME280;24904;52.208;21.192;2023-01-26T01:26:04;101398.70;;;2.05;73.19
39177;BME280;24904;52.208;21.192;2023-01-26T01:31:12;101394.77;;;2.06;73.62
39177;BME280;24904;52.208;21.192;2023-01-26T01:36:18;101387.80;;;2.05;73.35
39177;BME280;24904;52.208;21.192;2023-01-26T01:41:23;101378.33;;;2.05;73.68
39177;BME280;24904;52.208;21.192;2023-01-26T01:46:31;101371.21;;;2.03;73.84
39177;BME280;24904;52.208;21.192;2023-01-26T01:51:40;101364.62;;;2.05;73.83
39177;BME280;24904;52.208;21.192;2023-01-26T01:56:49;101354.18;;;2.07;73.72
39177;BME280;24904;52.208;21.192;2023-01-26T02:01:57;101353.54;;;2.10;73.78
39177;BME280;24904;52.208;21.192;2023-01-26T02:07:02;101346.39;;;2.11;74.07
39177;BME280;24904;52.208;21.192;2023-01-26T02:12:12;101340.87;;;2.15;73.80
39177;BME280;24904;52.208;21.192;2023-01-26T02:17:18;101334.77;;;2.16;74.26
39177;BME280;24904;52.208;21.192;2023-01-26T02:22:30;101332.59;;;2.17;74.06
39177;BME280;24904;52.208;21.192;2023-01-26T02:27:38;101323.64;;;2.18;73.76
39177;BME280;24904;52.208;21.192;2023-01-26T02:32:43;101324.88;;;2.18;73.78
39177;BME280;24904;52.208;21.192;2023-01-26T02:37:48;101317.37;;;2.19;73.87
39177;BME280;24904;52.208;21.192;2023-01-26T02:42:53;101313.98;;;2.18;73.92
39177;BME280;24904;52.208;21.192;2023-01-26T02:47:58;101307.98;;;2.15;73.70
39177;BME280;24904;52.208;21.192;2023-01-26T02:53:07;101302.90;;;2.19;74.08
39177;BME280;24904;52.208;21.192;2023-01-26T02:58:12;101296.92;;;2.20;74.25
39177;BME280;24904;52.208;21.192;2023-01-26T03:03:19;101297.05;;;2.22;73.97
39177;BME280;24904;52.208;21.192;2023-01-26T03:08:27;101286.41;;;2.23;74.01
39177;BME280;24904;52.208;21.192;2023-01-26T03:13:32;101282.91;;;2.25;73.95
39177;BME280;24904;52.208;21.192;2023-01-26T03:18:37;101279.83;;;2.29;74.25
39177;BME280;24904;52.208;21.192;2023-01-26T03:24:00;101275.89;;;2.33;73.82
39177;BME280;24904;52.208;21.192;2023-01-26T03:29:24;101266.47;;;2.30;73.90
39177;BME280;24904;52.208;21.192;2023-01-26T03:34:30;101251.11;;;2.34;73.67
39177;BME280;24904;52.208;21.192;2023-01-26T03:39:35;101249.48;;;2.32;74.09
39177;BME280;24904;52.208;21.192;2023-01-26T03:44:59;101250.41;;;2.33;74.01
39177;BME280;24904;52.208;21.192;2023-01-26T03:50:24;101253.38;;;2.34;73.83
39177;BME280;24904;52.208;21.192;2023-01-26T03:55:47;101252.05;;;2.35;73.96
39177;BME280;24904;52.208;21.192;2023-01-26T04:01:10;101246.91;;;2.37;74.04
39177;BME280;24904;52.208;21.192;2023-01-26T04:06:24;101242.20;;;2.35;73.75
39177;BME280;24904;52.208;21.192;2023-01-26T04:11:48;101237.04;;;2.33;74.03
39177;BME280;24904;52.208;21.192;2023-01-26T04:16:53;101229.55;;;2.33;73.72
39177;BME280;24904;52.208;21.192;2023-01-26T04:22:16;101229.39;;;2.33;73.87
39177;BME280;24904;52.208;21.192;2023-01-26T04:27:24;101223.72;;;2.30;73.83
39177;BME280;24904;52.208;21.192;2023-01-26T04:32:30;101225.04;;;2.31;74.09
39177;BME280;24904;52.208;21.192;2023-01-26T04:37:35;101217.56;;;2.33;74.01
39177;BME280;24904;52.208;21.192;2023-01-26T04:42:41;101225.30;;;2.34;74.09
39177;BME280;24904;52.208;21.192;2023-01-26T04:47:46;101235.13;;;2.36;74.13
39177;BME280;24904;52.208;21.192;2023-01-26T04:52:53;101232.92;;;2.35;74.04
39177;BME280;24904;52.208;21.192;2023-01-26T04:57:58;101229.11;;;2.33;74.06
39177;BME280;24904;52.208;21.192;2023-01-26T05:03:03;101222.96;;;2.34;74.07
39177;BME280;24904;52.208;21.192;2023-01-26T05:08:08;101218.02;;;2.35;74.12
39177;BME280;24904;52.208;21.192;2023-01-26T05:13:13;101220.98;;;2.30;74.04
39177;BME280;24904;52.208;21.192;2023-01-26T05:18:36;101216.56;;;2.29;74.21
39177;BME280;24904;52.208;21.192;2023-01-26T05:23:54;101216.00;;;2.33;74.29
39177;BME280;24904;52.208;21.192;2023-01-26T05:29:11;101214.34;;;2.32;74.12
39177;BME280;24904;52.208;21.192;2023-01-26T05:34:17;101215.66;;;2.31;74.02
39177;BME280;24904;52.208;21.192;2023-01-26T05:39:22;101216.45;;;2.30;74.15
39177;BME280;24904;52.208;21.192;2023-01-26T05:44:27;101213.52;;;2.26;74.00
39177;BME280;24904;52.208;21.192;2023-01-26T05:49:47;101216.86;;;2.21;74.44
39177;BME280;24904;52.208;21.192;2023-01-26T05:55:01;101215.07;;;2.25;74.25
39177;BME280;24904;52.208;21.192;2023-01-26T06:00:09;101207.03;;;2.29;74.26
39177;BME280;24904;52.208;21.192;2023-01-26T06:05:17;101214.77;;;2.30;74.26
39177;BME280;24904;52.208;21.192;2023-01-26T06:10:24;101212.45;;;2.32;74.57
39177;BME280;24904;52.208;21.192;2023-01-26T06:15:43;101222.84;;;2.28;74.42
39177;BME280;24904;52.208;21.192;2023-01-26T06:20:48;101222.13;;;2.28;74.46
39177;BME280;24904;52.208;21.192;2023-01-26T06:25:56;101221.10;;;2.33;74.09
39177;BME280;24904;52.208;21.192;2023-01-26T06:31:02;101220.34;;;2.33;74.31
39177;BME280;24904;52.208;21.192;2023-01-26T06:36:11;101223.89;;;2.31;74.49
39177;BME280;24904;52.208;21.192;2023-01-26T06:41:16;101219.55;;;2.31;74.64
39177;BME280;24904;52.208;21.192;2023-01-26T06:46:23;101215.77;;;2.31;74.32
39177;BME280;24904;52.208;21.192;2023-01-26T06:51:51;101212.33;;;2.32;74.42
39177;BME280;24904;52.208;21.192;2023-01-26T06:57:00;101210.53;;;2.38;74.91
39177;BME280;24904;52.208;21.192;2023-01-26T07:02:37;101211.46;;;2.42;74.39
39177;BME280;24904;52.208;21.192;2023-01-26T07:07:43;101206.46;;;2.42;74.49
39177;BME280;24904;52.208;21.192;2023-01-26T07:12:51;101208.16;;;2.44;74.26
39177;BME280;24904;52.208;21.192;2023-01-26T07:17:58;101205.45;;;2.46;74.47
39177;BME280;24904;52.208;21.192;2023-01-26T07:23:03;101203.11;;;2.47;74.08
39177;BME280;24904;52.208;21.192;2023-01-26T07:28:09;101198.29;;;2.44;73.95
39177;BME280;24904;52.208;21.192;2023-01-26T07:33:15;101192.32;;;2.47;73.57
39177;BME280;24904;52.208;21.192;2023-01-26T07:38:21;101187.34;;;2.49;73.41
39177;BME280;24904;52.208;21.192;2023-01-26T07:43:26;101183.58;;;2.53;73.09
39177;BME280;24904;52.208;21.192;2023-01-26T07:48:31;101183.44;;;2.51;72.70
39177;BME280;24904;52.208;21.192;2023-01-26T07:53:37;101184.18;;;2.50;72.58
39177;BME280;24904;52.208;21.192;2023-01-26T07:58:44;101182.60;;;2.53;72.59
39177;BME280;24904;52.208;21.192;2023-01-26T08:03:52;101185.40;;;2.57;72.15
39177;BME280;24904;52.208;21.192;2023-01-26T08:08:58;101184.67;;;2.58;72.13
39177;BME280;24904;52.208;21.192;2023-01-26T08:14:03;101171.91;;;2.61;71.81
39177;BME280;24904;52.208;21.192;2023-01-26T08:19:08;101175.73;;;2.60;71.55
39177;BME280;24904;52.208;21.192;2023-01-26T08:24:13;101174.77;;;2.60;71.68
39177;BME280;24904;52.208;21.192;2023-01-26T08:29:18;101167.06;;;2.60;71.06
39177;BME280;24904;52.208;21.192;2023-01-26T08:34:23;101164.40;;;2.63;71.14
39177;BME280;24904;52.208;21.192;2023-01-26T08:39:29;101163.02;;;2.63;70.74
39177;BME280;24904;52.208;21.192;2023-01-26T08:44:35;101167.39;;;2.62;70.39
39177;BME280;24904;52.208;21.192;2023-01-26T08:49:40;101172.05;;;2.62;70.38
39177;BME280;24904;52.208;21.192;2023-01-26T08:54:45;101173.68;;;2.62;70.51
39177;BME280;24904;52.208;21.192;2023-01-26T08:59:51;101179.42;;;2.71;70.47
39177;BME280;24904;52.208;21.192;2023-01-26T09:04:56;101191.79;;;2.69;70.21
39177;BME280;24904;52.208;21.192;2023-01-26T09:10:01;101195.16;;;2.71;70.12
39177;BME280;24904;52.208;21.192;2023-01-26T09:15:07;101195.22;;;2.71;70.03
39177;BME280;24904;52.208;21.192;2023-01-26T09:20:13;101192.80;;;2.70;70.00
39177;BME280;24904;52.208;21.192;2023-01-26T09:25:20;101198.63;;;2.78;69.98
39177;BME280;24904;52.208;21.192;2023-01-26T09:30:28;101201.16;;;2.82;69.89
39177;BME280;24904;52.208;21.192;2023-01-26T09:35:33;101195.63;;;2.78;69.52
39177;BME280;24904;52.208;21.192;2023-01-26T09:40:54;101196.25;;;2.73;68.91
39177;BME280;24904;52.208;21.192;2023-01-26T09:46:08;101186.67;;;2.69;68.82
39177;BME280;24904;52.208;21.192;2023-01-26T09:51:22;101185.91;;;2.72;68.75
39177;BME280;24904;52.208;21.192;2023-01-26T09:56:31;101176.09;;;2.72;68.68
39177;BME280;24904;52.208;21.192;2023-01-26T10:01:42;101170.08;;;2.72;68.46
39177;BME280;24904;52.208;21.192;2023-01-26T10:06:49;101165.45;;;2.71;68.42
39177;BME280;24904;52.208;21.192;2023-01-26T10:12:24;101159.34;;;2.72;68.58
39177;BME280;24904;52.208;21.192;2023-01-26T10:17:34;101158.23;;;2.78;68.46
39177;BME280;24904;52.208;21.192;2023-01-26T10:22:45;101157.75;;;2.85;68.50
39177;BME280;24904;52.208;21.192;2023-01-26T10:27:55;101145.10;;;2.88;68.47
39177;BME280;24904;52.208;21.192;2023-01-26T10:33:01;101136.50;;;2.82;68.29
39177;BME280;24904;52.208;21.192;2023-01-26T10:38:29;101129.05;;;2.78;68.21
39177;BME280;24904;52.208;21.192;2023-01-26T10:43:49;101127.67;;;2.77;67.78
39177;BME280;24904;52.208;21.192;2023-01-26T10:48:56;101125.59;;;2.73;67.85
39177;BME280;24904;52.208;21.192;2023-01-26T10:54:22;101117.73;;;2.71;68.36
39177;BME280;24904;52.208;21.192;2023-01-26T10:59:32;101106.32;;;2.76;67.99
39177;BME280;24904;52.208;21.192;2023-01-26T11:04:36;101099.88;;;2.80;68.19
39177;BME280;24904;52.208;21.192;2023-01-26T11:09:41;101087.91;;;2.82;67.70
39177;BME280;24904;52.208;21.192;2023-01-26T11:15:00;101083.56;;;2.82;67.73
39177;BME280;24904;52.208;21.192;2023-01-26T11:25:43;101073.73;;;2.82;67.20
39177;BME280;24904;52.208;21.192;2023-01-26T11:31:05;101069.68;;;2.84;67.36
39177;BME280;24904;52.208;21.192;2023-01-26T11:36:25;101061.17;;;2.88;67.40
39177;BME280;24904;52.208;21.192;2023-01-26T11:41:45;101053.55;;;2.87;67.09
39177;BME280;24904;52.208;21.192;2023-01-26T11:46:59;101044.62;;;2.89;67.10
39177;BME280;24904;52.208;21.192;2023-01-26T11:52:13;101046.15;;;2.94;67.28
39177;BME280;24904;52.208;21.192;2023-01-26T11:57:30;101044.31;;;2.97;67.17
39177;BME280;24904;52.208;21.192;2023-01-26T12:02:37;101039.66;;;2.99;67.04
39177;BME280;24904;52.208;21.192;2023-01-26T12:07:47;101035.25;;;2.95;66.93
39177;BME280;24904;52.208;21.192;2023-01-26T12:13:00;101030.23;;;2.89;66.86
39177;BME280;24904;52.208;21.192;2023-01-26T12:18:15;101026.42;;;2.92;67.27
39177;BME280;24904;52.208;21.192;2023-01-26T12:23:28;101014.17;;;2.96;66.86
39177;BME280;24904;52.208;21.192;2023-01-26T12:28:38;101010.54;;;2.96;66.90
39177;BME280;24904;52.208;21.192;2023-01-26T12:33:50;101012.61;;;2.96;67.04
39177;BME280;24904;52.208;21.192;2023-01-26T12:39:12;101020.29;;;2.95;66.52
39177;BME280;24904;52.208;21.192;2023-01-26T12:44:34;101022.02;;;2.94;66.61
39177;BME280;24904;52.208;21.192;2023-01-26T12:49:54;101024.14;;;2.90;66.95
39177;BME280;24904;52.208;21.192;2023-01-26T12:55:09;101023.77;;;2.90;66.76
39177;BME280;24904;52.208;21.192;2023-01-26T13:00:22;101023.44;;;2.88;66.36
39177;BME280;24904;52.208;21.192;2023-01-26T13:05:30;101021.36;;;2.82;66.53
39177;BME280;24904;52.208;21.192;2023-01-26T13:10:48;101019.94;;;2.85;66.52
39177;BME280;24904;52.208;21.192;2023-01-26T13:21:39;101009.20;;;2.89;66.79
39177;BME280;24904;52.208;21.192;2023-01-26T13:26:46;101009.45;;;2.87;66.89
39177;BME280;24904;52.208;21.192;2023-01-26T13:31:52;101004.02;;;2.87;66.63
39177;BME280;24904;52.208;21.192;2023-01-26T13:37:02;100999.74;;;2.85;66.86
39177;BME280;24904;52.208;21.192;2023-01-26T13:42:21;100999.03;;;2.85;66.56
39177;BME280;24904;52.208;21.192;2023-01-26T13:47:31;101000.07;;;2.87;66.72
39177;BME280;24904;52.208;21.192;2023-01-26T13:52:42;100993.83;;;2.88;67.01
39177;BME280;24904;52.208;21.192;2023-01-26T13:57:47;100989.94;;;2.83;66.52
39177;BME280;24904;52.208;21.192;2023-01-26T14:02:52;100994.21;;;2.83;66.45
39177;BME280;24904;52.208;21.192;2023-01-26T14:07:57;101000.73;;;2.87;66.84
39177;BME280;24904;52.208;21.192;2023-01-26T14:13:03;101002.05;;;2.88;66.56
39177;BME280;24904;52.208;21.192;2023-01-26T14:18:20;100993.42;;;2.91;66.48
39177;BME280;24904;52.208;21.192;2023-01-26T14:23:29;100989.73;;;2.88;66.31
39177;BME280;24904;52.208;21.192;2023-01-26T14:28:40;100991.33;;;2.88;66.41
39177;BME280;24904;52.208;21.192;2023-01-26T14:33:45;100990.73;;;2.88;66.56
39177;BME280;24904;52.208;21.192;2023-01-26T14:38:52;100985.98;;;2.86;66.01
39177;BME280;24904;52.208;21.192;2023-01-26T14:43:58;100984.59;;;2.84;66.38
39177;BME280;24904;52.208;21.192;2023-01-26T14:49:08;100977.36;;;2.82;66.16
39177;BME280;24904;52.208;21.192;2023-01-26T14:54:19;100973.65;;;2.80;66.13
39177;BME280;24904;52.208;21.192;2023-01-26T14:59:34;100976.23;;;2.79;66.34
39177;BME280;24904;52.208;21.192;2023-01-26T15:04:42;100978.52;;;2.77;66.48
39177;BME280;24904;52.208;21.192;2023-01-26T15:09:53;100975.25;;;2.75;66.22
39177;BME280;24904;52.208;21.192;2023-01-26T15:14:59;100977.08;;;2.76;66.41
39177;BME280;24904;52.208;21.192;2023-01-26T15:25:35;100966.73;;;2.75;66.48
39177;BME280;24904;52.208;21.192;2023-01-26T15:30:47;100971.55;;;2.76;66.05
39177;BME280;24904;52.208;21.192;2023-01-26T15:35:58;100962.49;;;2.76;66.30
39177;BME280;24904;52.208;21.192;2023-01-26T15:41:03;100964.12;;;2.74;66.06
39177;BME280;24904;52.208;21.192;2023-01-26T15:46:10;100972.91;;;2.69;66.16
39177;BME280;24904;52.208;21.192;2023-01-26T15:51:15;100975.35;;;2.69;66.38
39177;BME280;24904;52.208;21.192;2023-01-26T15:56:20;100975.71;;;2.67;66.20
39177;BME280;24904;52.208;21.192;2023-01-26T16:01:29;100978.20;;;2.63;66.69
39177;BME280;24904;52.208;21.192;2023-01-26T16:06:35;100979.55;;;2.65;66.55
39177;BME280;24904;52.208;21.192;2023-01-26T16:11:45;100980.11;;;2.67;66.84
39177;BME280;24904;52.208;21.192;2023-01-26T16:16:51;100979.54;;;2.65;66.81
39177;BME280;24904;52.208;21.192;2023-01-26T16:21:56;100981.52;;;2.64;66.90
39177;BME280;24904;52.208;21.192;2023-01-26T16:27:01;100985.25;;;2.64;66.98
39177;BME280;24904;52.208;21.192;2023-01-26T16:32:14;100987.84;;;2.65;66.77
39177;BME280;24904;52.208;21.192;2023-01-26T16:37:24;100989.92;;;2.66;66.57
39177;BME280;24904;52.208;21.192;2023-01-26T16:42:30;100991.70;;;2.67;66.56
39177;BME280;24904;52.208;21.192;2023-01-26T16:47:36;100988.20;;;2.66;66.36
39177;BME280;24904;52.208;21.192;2023-01-26T16:52:42;100988.73;;;2.66;66.64
39177;BME280;24904;52.208;21.192;2023-01-26T16:57:47;100990.16;;;2.65;66.46
39177;BME280;24904;52.208;21.192;2023-01-26T17:02:53;100990.13;;;2.64;66.53
39177;BME280;24904;52.208;21.192;2023-01-26T17:07:58;100992.90;;;2.64;66.60
39177;BME280;24904;52.208;21.192;2023-01-26T17:13:03;100996.45;;;2.61;66.46
39177;BME280;24904;52.208;21.192;2023-01-26T17:18:09;100990.63;;;2.58;66.22
39177;BME280;24904;52.208;21.192;2023-01-26T17:23:14;100989.27;;;2.58;66.17
39177;BME280;24904;52.208;21.192;2023-01-26T17:28:22;100986.94;;;2.58;66.27
39177;BME280;24904;52.208;21.192;2023-01-26T17:33:28;100980.13;;;2.55;66.22
39177;BME280;24904;52.208;21.192;2023-01-26T17:38:36;100978.52;;;2.54;66.11
39177;BME280;24904;52.208;21.192;2023-01-26T17:43:43;100972.66;;;2.54;66.02
39177;BME280;24904;52.208;21.192;2023-01-26T17:48:49;100969.59;;;2.53;65.86
39177;BME280;24904;52.208;21.192;2023-01-26T17:53:54;100968.95;;;2.52;65.76
39177;BME280;24904;52.208;21.192;2023-01-26T17:59:03;100967.64;;;2.53;65.69
39177;BME280;24904;52.208;21.192;2023-01-26T18:04:08;100966.89;;;2.48;65.41
39177;BME280;24904;52.208;21.192;2023-01-26T18:09:13;100974.76;;;2.48;65.40
39177;BME280;24904;52.208;21.192;2023-01-26T18:14:18;100982.94;;;2.46;65.34
39177;BME280;24904;52.208;21.192;2023-01-26T18:19:26;100983.66;;;2.45;65.18
39177;BME280;24904;52.208;21.192;2023-01-26T18:24:31;100978.69;;;2.45;65.09
39177;BME280;24904;52.208;21.192;2023-01-26T18:29:36;100975.23;;;2.46;64.96
39177;BME280;24904;52.208;21.192;2023-01-26T18:34:41;100969.16;;;2.44;65.18
39177;BME280;24904;52.208;21.192;2023-01-26T18:39:46;100967.93;;;2.43;65.07
39177;BME280;24904;52.208;21.192;2023-01-26T18:44:51;100969.98;;;2.44;64.69
39177;BME280;24904;52.208;21.192;2023-01-26T18:50:03;100972.56;;;2.40;64.99
39177;BME280;24904;52.208;21.192;2023-01-26T18:55:10;100978.89;;;2.37;65.05
39177;BME280;24904;52.208;21.192;2023-01-26T19:00:16;100982.84;;;2.35;65.28
39177;BME280;24904;52.208;21.192;2023-01-26T19:05:21;100981.98;;;2.35;65.11
39177;BME280;24904;52.208;21.192;2023-01-26T19:10:26;100978.98;;;2.29;65.16
39177;BME280;24904;52.208;21.192;2023-01-26T19:15:31;100977.00;;;2.30;65.14
39177;BME280;24904;52.208;21.192;2023-01-26T19:20:36;100982.92;;;2.28;64.92
39177;BME280;24904;52.208;21.192;2023-01-26T19:25:43;100986.09;;;2.29;65.15
39177;BME280;24904;52.208;21.192;2023-01-26T19:30:49;100991.45;;;2.31;64.85
39177;BME280;24904;52.208;21.192;2023-01-26T19:35:56;100989.66;;;2.31;64.62
39177;BME280;24904;52.208;21.192;2023-01-26T19:41:02;100987.38;;;2.33;64.92
39177;BME280;24904;52.208;21.192;2023-01-26T19:46:08;100977.52;;;2.36;64.77
39177;BME280;24904;52.208;21.192;2023-01-26T19:51:18;100978.43;;;2.34;64.71
39177;BME280;24904;52.208;21.192;2023-01-26T19:56:30;100980.73;;;2.31;64.60
39177;BME280;24904;52.208;21.192;2023-01-26T20:01:37;100983.31;;;2.34;64.70
39177;BME280;24904;52.208;21.192;2023-01-26T20:06:45;100981.93;;;2.40;64.63
39177;BME280;24904;52.208;21.192;2023-01-26T20:11:50;100983.45;;;2.37;64.53
39177;BME280;24904;52.208;21.192;2023-01-26T20:16:56;100979.56;;;2.32;64.61
39177;BME280;24904;52.208;21.192;2023-01-26T20:22:04;100971.61;;;2.24;64.47
39177;BME280;24904;52.208;21.192;2023-01-26T20:27:14;100972.26;;;2.22;64.63
39177;BME280;24904;52.208;21.192;2023-01-26T20:32:19;100974.03;;;2.20;64.84
39177;BME280;24904;52.208;21.192;2023-01-26T20:37:43;100967.95;;;2.20;64.89
39177;BME280;24904;52.208;21.192;2023-01-26T20:42:50;100965.36;;;2.20;65.03
39177;BME280;24904;52.208;21.192;2023-01-26T20:47:56;100970.27;;;2.20;65.06
39177;BME280;24904;52.208;21.192;2023-01-26T20:53:01;100973.09;;;2.21;64.94
39177;BME280;24904;52.208;21.192;2023-01-26T20:58:06;100976.38;;;2.22;64.85
39177;BME280;24904;52.208;21.192;2023-01-26T21:03:11;100972.36;;;2.19;64.78
39177;BME280;24904;52.208;21.192;2023-01-26T21:08:20;100971.23;;;2.17;65.13
39177;BME280;24904;52.208;21.192;2023-01-26T21:13:27;100967.43;;;2.20;65.45
39177;BME280;24904;52.208;21.192;2023-01-26T21:18:33;100970.80;;;2.17;65.42
39177;BME280;24904;52.208;21.192;2023-01-26T21:23:41;100965.44;;;2.17;65.46
39177;BME280;24904;52.208;21.192;2023-01-26T21:28:50;100963.91;;;2.17;65.61
39177;BME280;24904;52.208;21.192;2023-01-26T21:33:58;100965.35;;;2.18;65.77
39177;BME280;24904;52.208;21.192;2023-01-26T21:39:10;100971.96;;;2.16;65.78
39177;BME280;24904;52.208;21.192;2023-01-26T21:44:18;100966.70;;;2.14;66.22
39177;BME280;24904;52.208;21.192;2023-01-26T21:49:25;100964.69;;;2.14;66.34
39177;BME280;24904;52.208;21.192;2023-01-26T21:54:31;100965.31;;;2.13;66.25
39177;BME280;24904;52.208;21.192;2023-01-26T21:59:36;100964.59;;;2.18;66.18
39177;BME280;24904;52.208;21.192;2023-01-26T22:04:42;100966.06;;;2.20;66.25
39177;BME280;24904;52.208;21.192;2023-01-26T22:09:47;100966.30;;;2.19;65.95
39177;BME280;24904;52.208;21.192;2023-01-26T22:14:52;100965.66;;;2.17;65.87
39177;BME280;24904;52.208;21.192;2023-01-26T22:19:57;100967.83;;;2.14;66.00
39177;BME280;24904;52.208;21.192;2023-01-26T22:25:02;100965.48;;;2.09;66.02
39177;BME280;24904;52.208;21.192;2023-01-26T22:30:09;100959.52;;;2.09;66.16
39177;BME280;24904;52.208;21.192;2023-01-26T22:35:15;100956.11;;;2.09;66.13
39177;BME280;24904;52.208;21.192;2023-01-26T22:40:20;100954.77;;;2.08;66.19
39177;BME280;24904;52.208;21.192;2023-01-26T22:45:25;100950.35;;;2.10;66.36
39177;BME280;24904;52.208;21.192;2023-01-26T22:50:30;100956.64;;;2.09;66.27
39177;BME280;24904;52.208;21.192;2023-01-26T22:55:39;100954.60;;;2.08;66.51
39177;BME280;24904;52.208;21.192;2023-01-26T23:00:45;100953.86;;;2.03;66.16
39177;BME280;24904;52.208;21.192;2023-01-26T23:05:50;100954.09;;;1.98;66.55
39177;BME280;24904;52.208;21.192;2023-01-26T23:11:07;100949.01;;;1.95;66.52
39177;BME280;24904;52.208;21.192;2023-01-26T23:16:13;100948.66;;;1.93;66.77
39177;BME280;24904;52.208;21.192;2023-01-26T23:21:18;100949.52;;;2.01;66.55
39177;BME280;24904;52.208;21.192;2023-01-26T23:26:23;100947.52;;;2.08;66.71
39177;BME280;24904;52.208;21.192;2023-01-26T23:31:28;100943.55;;;2.04;66.50
39177;BME280;24904;52.208;21.192;2023-01-26T23:36:34;100941.66;;;2.02;66.65
39177;BME280;24904;52.208;21.192;2023-01-26T23:41:39;100940.19;;;2.02;66.71
39177;BME280;24904;52.208;21.192;2023-01-26T23:46:45;100937.52;;;1.98;66.99
39177;BME280;24904;52.208;21.192;2023-01-26T23:51:50;100928.40;;;2.01;67.10
39177;BME280;24904;52.208;21.192;2023-01-26T23:56:55;100922.10;;;2.02;67.30
